Sherman, Texas
Current Conditions -  °F | °C
As of 6:35 AM on Monday 24 Nov 2014 (Local Time) from KGYI Reporting Station
Clear Clear  
Wind Chill: 37°   Ceiling: Unl
Heat Index: 37°   Visibility: 10mi
Dew Point: 35°   Wind: 3mph
Humidity: 93%   Direction: 230°SW
Pressure: 29.97"   Gusts: NA
Location:  33.64°N, 96.61°W
Report Text: KGYI 241235Z AUTO 23003KT 10SM CLR 03/02 A2997 RMK AO2 T00260016
Loading
Personal Weather Stations






























Interactive Weather Map New forecast layout! Learn more

10-Day Weather Forecast

Advertisements
Track Severe Weather on mobile